Thelonious — WDG9943 — position and weather

sailwx.info

Track history (hours):
 
Tides and Currents Weather Stations Pressure Air Temp Water Temp Dewpoint Dewpoint Depression Visibility Wind Speed Wind Dir Waves Ship Positions

Thelonious

Owner: Williams, Christian D, Pacific Palisades, CA. More information available from US FCC via Universal Licensing System and Coast Guard Vessel Documentation Center.

Last reported at 2017-Aug-22 02:08 UTC. Time now 2017-Sep-24 21:14 UTC.
Position N 33°55' W 118°56'.
Warning: this ship's position is 33 days out of date.

Length 11 m.

Type: Sailing vessel. MMSI: 367592790.

Date/timePositionNaut miles runAvg speedWind from/ knotsBaromVisibWave heightAir tempDewpointWater temp
2017-Aug-22 02:08N 33°55' W 118°56'1 6.0
2017-Aug-22 01:56N 33°55' W 118°57'3 6.2
2017-Aug-22 01:30N 33°55' W 119°00'3 6.0
2017-Aug-22 00:59N 33°55' W 119°04'3 5.6
2017-Aug-22 00:28N 33°55' W 119°08'3 5.5
2017-Aug-21 23:59N 33°55' W 119°11'3 5.7
2017-Aug-21 23:30N 33°55' W 119°14'3 5.6
2017-Aug-21 23:00N 33°55' W 119°17'3 5.1
2017-Aug-21 22:30N 33°55' W 119°20'3 5.6
2017-Aug-21 22:00N 33°55' W 119°24'3 6.0
2017-Aug-21 21:30N 33°55' W 119°27'20 5.2
2017-Aug-21 17:40N 33°52' W 119°51'1 3.9
2017-Aug-21 17:30N 33°52' W 119°52'2 4.8
2017-Aug-21 17:00N 33°52' W 119°55'3 5.2
2017-Aug-21 16:30N 33°52' W 119°58'14 5.1
2017-Aug-21 13:41N 33°51' W 120°15'1 5.8
2017-Aug-21 13:28N 33°51' W 120°17'3 5.8
2017-Aug-21 13:00N 33°52' W 120°20'3 5.4
2017-Aug-21 12:30N 33°52' W 120°23'3 4.9
2017-Aug-21 11:50N 33°53' W 120°27'2 4.9
2017-Aug-21 11:24N 33°54' W 120°30'2 4.8
2017-Aug-21 11:00N 33°54' W 120°32'3 5.2
2017-Aug-21 10:30N 33°55' W 120°35'3 5.7
2017-Aug-21 10:00N 33°55' W 120°38'3 5.6
2017-Aug-21 09:30N 33°56' W 120°41'3 5.2
2017-Aug-21 08:59N 33°58' W 120°44'3 5.2
2017-Aug-21 08:30N 33°59' W 120°47'2 5.0
2017-Aug-21 08:00N 34°00' W 120°49'3 5.0
2017-Aug-21 07:29N 34°01' W 120°52'2 5.2
2017-Aug-21 07:00N 34°03' W 120°54'3 5.2
2017-Aug-21 06:30N 34°04' W 120°57'3 5.3
2017-Aug-21 06:00N 34°05' W 121°00'2 4.9
2017-Aug-21 05:30N 34°07' W 121°03'2 4.9
2017-Aug-21 05:00N 34°08' W 121°05'2 4.9
2017-Aug-21 04:30N 34°09' W 121°08'3 5.5
2017-Aug-21 03:59N 34°10' W 121°11'4 5.5
2017-Aug-21 03:12N 34°12' W 121°16'1 5.5
2017-Aug-21 03:00N 34°12' W 121°17'5 5.3
2017-Aug-21 02:00N 34°14' W 121°23'1 2.6
2017-Aug-21 01:29N 34°14' W 121°24'1 2.8
2017-Aug-21 01:00N 34°14' W 121°26'  
Track history (hours):
 
Tides and Currents Weather Stations Pressure Air Temp Water Temp Dewpoint Dewpoint Depression Visibility Wind Speed Wind Dir Waves Ship Positions

Thelonious

Owner: Williams, Christian D, Pacific Palisades, CA. More information available from US FCC via Universal Licensing System and Coast Guard Vessel Documentation Center.

Last reported at 2017-Aug-22 02:08 UTC. Time now 2017-Sep-24 21:14 UTC.
Position N 33°55' W 118°56'.
Warning: this ship's position is 33 days out of date.

Length 11 m.

Type: Sailing vessel. MMSI: 367592790.

Date/timePositionNaut miles runAvg speedWind from/ knotsBaromVisibWave heightAir tempDewpointWater temp
2017-Aug-22 02:08N 33°55' W 118°56'1 6.0
2017-Aug-22 01:56N 33°55' W 118°57'3 6.2
2017-Aug-22 01:30N 33°55' W 119°00'3 6.0
2017-Aug-22 00:59N 33°55' W 119°04'3 5.6
2017-Aug-22 00:28N 33°55' W 119°08'3 5.5
2017-Aug-21 23:59N 33°55' W 119°11'3 5.7
2017-Aug-21 23:30N 33°55' W 119°14'3 5.6
2017-Aug-21 23:00N 33°55' W 119°17'3 5.1
2017-Aug-21 22:30N 33°55' W 119°20'3 5.6
2017-Aug-21 22:00N 33°55' W 119°24'3 6.0
2017-Aug-21 21:30N 33°55' W 119°27'20 5.2
2017-Aug-21 17:40N 33°52' W 119°51'1 3.9
2017-Aug-21 17:30N 33°52' W 119°52'2 4.8
2017-Aug-21 17:00N 33°52' W 119°55'3 5.2
2017-Aug-21 16:30N 33°52' W 119°58'14 5.1
2017-Aug-21 13:41N 33°51' W 120°15'1 5.8
2017-Aug-21 13:28N 33°51' W 120°17'3 5.8
2017-Aug-21 13:00N 33°52' W 120°20'3 5.4
2017-Aug-21 12:30N 33°52' W 120°23'3 4.9
2017-Aug-21 11:50N 33°53' W 120°27'2 4.9
2017-Aug-21 11:24N 33°54' W 120°30'2 4.8
2017-Aug-21 11:00N 33°54' W 120°32'3 5.2
2017-Aug-21 10:30N 33°55' W 120°35'3 5.7
2017-Aug-21 10:00N 33°55' W 120°38'3 5.6
2017-Aug-21 09:30N 33°56' W 120°41'3 5.2
2017-Aug-21 08:59N 33°58' W 120°44'3 5.2
2017-Aug-21 08:30N 33°59' W 120°47'2 5.0
2017-Aug-21 08:00N 34°00' W 120°49'3 5.0
2017-Aug-21 07:29N 34°01' W 120°52'2 5.2
2017-Aug-21 07:00N 34°03' W 120°54'3 5.2
2017-Aug-21 06:30N 34°04' W 120°57'3 5.3
2017-Aug-21 06:00N 34°05' W 121°00'2 4.9
2017-Aug-21 05:30N 34°07' W 121°03'2 4.9
2017-Aug-21 05:00N 34°08' W 121°05'2 4.9
2017-Aug-21 04:30N 34°09' W 121°08'3 5.5
2017-Aug-21 03:59N 34°10' W 121°11'4 5.5
2017-Aug-21 03:12N 34°12' W 121°16'1 5.5
2017-Aug-21 03:00N 34°12' W 121°17'5 5.3
2017-Aug-21 02:00N 34°14' W 121°23'1 2.6
2017-Aug-21 01:29N 34°14' W 121°24'1 2.8
2017-Aug-21 01:00N 34°14' W 121°26'  

Dump ship's entire track history